createdAt,value
2022-12-01T08:36:38.044Z,6.66
2022-12-01T08:49:34.691Z,6.59
2022-12-01T14:54:43.206Z,6.97
2022-12-01T14:57:20.473Z,6.75
2022-12-01T14:59:47.318Z,6.90
2022-12-01T15:02:14.177Z,6.84
2022-12-01T15:05:19.554Z,6.72
2022-12-01T15:07:49.851Z,6.52
2022-12-01T15:13:19.825Z,6.44
2022-12-01T15:16:03.751Z,6.46
2022-12-01T15:18:32.894Z,6.29
2022-12-01T15:21:21.403Z,6.49
2022-12-01T15:27:04.047Z,6.50
2022-12-01T15:29:44.814Z,6.50
2022-12-01T15:32:16.752Z,6.61
2022-12-01T15:34:54.771Z,6.26
2022-12-01T15:37:24.503Z,6.50
2022-12-01T15:42:39.706Z,6.53
2022-12-01T15:45:15.267Z,6.49
2022-12-01T15:47:43.444Z,6.63
2022-12-01T15:50:44.524Z,6.48
2022-12-01T15:53:24.550Z,6.39
2022-12-01T15:55:58.341Z,6.46
2022-12-01T15:58:32.991Z,6.62
2022-12-01T16:01:05.747Z,6.61
2022-12-01T16:03:46.102Z,6.48
2022-12-01T16:06:13.168Z,6.56
2022-12-01T16:08:39.821Z,6.49
2022-12-01T16:11:16.949Z,6.52
2022-12-01T16:13:48.814Z,6.39
2022-12-01T16:16:32.474Z,6.57
2022-12-01T16:19:19.316Z,6.28
2022-12-01T16:22:15.935Z,6.41
2022-12-01T16:24:52.106Z,6.35
2022-12-01T16:27:21.270Z,6.25
2022-12-01T16:29:52.849Z,6.48
2022-12-01T16:32:38.308Z,6.39
2022-12-01T16:35:26.483Z,6.36
2022-12-01T16:37:54.034Z,6.46
2022-12-01T16:40:20.662Z,6.48
2022-12-01T16:42:50.172Z,6.41
2022-12-01T16:45:20.741Z,6.32
2022-12-01T16:47:53.614Z,6.35
2022-12-01T16:50:25.015Z,6.42
2022-12-01T16:52:53.969Z,6.52
2022-12-01T16:55:49.383Z,6.48
2022-12-01T16:58:18.495Z,6.42
2022-12-01T17:00:45.544Z,6.55
2022-12-01T17:03:15.059Z,6.56
2022-12-01T17:05:41.716Z,6.29
2022-12-01T17:08:08.360Z,6.36
2022-12-01T17:10:40.033Z,6.36
2022-12-01T17:13:06.662Z,6.52
2022-12-01T17:15:33.372Z,6.39
2022-12-01T17:18:00.462Z,6.44
2022-12-01T17:20:26.981Z,6.49
2022-12-01T17:22:53.465Z,6.46
2022-12-01T17:25:21.550Z,6.39
2022-12-01T17:27:48.068Z,6.38
2022-12-01T17:30:15.567Z,6.21
2022-12-01T17:32:42.061Z,6.28
2022-12-01T17:35:09.190Z,6.35
2022-12-01T17:37:37.055Z,6.44
2022-12-01T17:40:09.826Z,6.38
2022-12-01T17:42:37.893Z,6.52
2022-12-01T17:45:05.057Z,6.52
2022-12-01T17:47:31.750Z,6.57
2022-12-01T17:49:58.338Z,6.52
2022-12-01T17:52:28.443Z,6.41
2022-12-01T17:54:56.409Z,6.44
2022-12-01T18:00:05.830Z,6.48
2022-12-01T18:05:13.118Z,6.46
2022-12-01T18:10:25.738Z,6.59
2022-12-01T18:15:34.863Z,6.35
2022-12-01T18:20:44.711Z,6.31
2022-12-01T18:25:57.542Z,6.32
2022-12-01T18:31:15.850Z,6.34
2022-12-01T18:33:45.103Z,6.34
2022-12-01T18:36:19.221Z,6.17
2022-12-01T18:38:47.782Z,6.08
2022-12-01T18:41:15.807Z,6.03
2022-12-01T18:43:42.685Z,6.13
2022-12-01T18:46:13.362Z,6.17
2022-12-01T18:48:48.419Z,5.98
2022-12-01T18:51:19.577Z,5.70
2022-12-01T18:53:46.309Z,5.76
2022-12-01T18:58:40.566Z,5.67
2022-12-01T19:01:39.977Z,5.66
2022-12-01T19:04:15.150Z,5.73
2022-12-01T19:06:42.547Z,5.80
2022-12-01T19:09:14.764Z,5.80
2022-12-01T19:11:41.564Z,5.67
2022-12-01T19:14:14.957Z,5.67
2022-12-01T19:16:42.971Z,5.69
2022-12-01T19:19:09.767Z,5.65
2022-12-01T19:21:36.844Z,5.39
2022-12-01T19:24:03.432Z,5.45
2022-12-01T19:26:29.990Z,5.21
2022-12-01T19:28:56.690Z,5.03
2022-12-01T19:31:24.937Z,5.07
2022-12-01T19:33:53.140Z,4.95
2022-12-01T19:36:24.435Z,4.98
2022-12-01T19:38:51.843Z,4.97
2022-12-01T19:41:21.169Z,5.01
2022-12-01T19:43:48.303Z,4.94
2022-12-01T19:46:18.000Z,4.97
2022-12-01T19:48:45.150Z,4.98
2022-12-01T19:51:24.016Z,4.88
2022-12-01T19:53:51.429Z,4.76
2022-12-01T19:56:18.399Z,4.95
2022-12-01T19:58:44.941Z,5.07
2022-12-01T20:01:16.061Z,5.08
2022-12-01T20:03:45.614Z,4.89
2022-12-01T20:06:17.814Z,4.88
2022-12-01T20:08:45.081Z,4.85
2022-12-01T20:11:12.839Z,4.87
2022-12-01T20:13:41.808Z,4.84
2022-12-01T20:16:12.967Z,4.88
2022-12-01T20:18:40.358Z,5.03
2022-12-01T20:21:08.687Z,4.89
2022-12-01T20:23:37.488Z,4.87
2022-12-01T20:26:06.554Z,4.88
2022-12-01T20:28:33.779Z,4.71
2022-12-01T20:31:00.296Z,4.73
2022-12-01T20:33:26.937Z,4.78
2022-12-01T20:35:53.518Z,4.84
2022-12-01T20:38:25.827Z,4.89
2022-12-01T20:40:54.398Z,4.94
2022-12-01T20:43:21.003Z,4.80
2022-12-01T20:45:47.574Z,4.84
2022-12-01T20:48:14.678Z,4.76
2022-12-01T20:50:41.162Z,4.95
2022-12-01T20:53:07.910Z,4.71
2022-12-01T20:55:36.767Z,4.76
2022-12-01T20:58:04.558Z,4.73
2022-12-01T21:00:32.076Z,5.01
2022-12-01T21:02:58.755Z,4.89
2022-12-01T21:05:26.029Z,4.83
2022-12-01T21:07:55.919Z,4.67
2022-12-01T21:10:22.463Z,4.87
2022-12-01T21:13:13.178Z,5.01
2022-12-01T21:15:52.344Z,4.89
2022-12-01T21:18:26.651Z,4.95
2022-12-01T21:21:04.880Z,4.95
2022-12-01T21:23:31.750Z,4.71
2022-12-01T21:25:58.278Z,4.94
2022-12-01T21:28:26.632Z,4.92
2022-12-01T21:31:18.661Z,4.98
2022-12-01T21:33:45.262Z,5.03
2022-12-01T21:36:22.855Z,4.85
2022-12-01T21:38:54.975Z,4.94
2022-12-01T21:41:29.816Z,4.97
2022-12-01T21:44:02.194Z,4.76
2022-12-01T21:46:29.616Z,4.64
2022-12-01T21:48:56.201Z,4.70
2022-12-01T21:51:23.984Z,4.73
2022-12-01T21:53:52.483Z,4.68
2022-12-01T21:56:25.462Z,4.78
2022-12-01T21:58:53.408Z,4.80
2022-12-01T22:01:30.258Z,4.80
2022-12-01T22:04:02.040Z,4.74
2022-12-01T22:06:42.980Z,4.87
2022-12-01T22:09:17.687Z,4.80
2022-12-01T22:11:46.684Z,4.92
2022-12-01T22:14:21.600Z,4.89
2022-12-01T22:17:19.440Z,4.78
2022-12-01T22:19:59.890Z,4.57
2022-12-01T22:22:28.561Z,4.77
2022-12-01T22:25:25.349Z,4.80
2022-12-01T22:27:52.517Z,4.74
2022-12-01T22:30:23.855Z,4.76
2022-12-01T22:33:01.122Z,4.81
2022-12-01T22:35:43.992Z,4.54
2022-12-01T22:38:28.801Z,4.47
2022-12-01T22:41:05.719Z,4.45
2022-12-01T22:43:54.739Z,4.52
2022-12-01T22:46:40.021Z,4.74
2022-12-01T22:49:06.507Z,4.80
2022-12-01T22:51:48.798Z,4.77
2022-12-01T22:54:19.000Z,4.68
2022-12-01T22:56:49.257Z,4.80
2022-12-01T22:59:33.539Z,4.66
2022-12-01T23:02:22.246Z,4.61
2022-12-01T23:04:58.837Z,4.63
2022-12-01T23:07:38.657Z,4.60
2022-12-01T23:10:16.799Z,4.45
2022-12-01T23:12:44.134Z,4.43
2022-12-01T23:15:30.728Z,4.56
2022-12-01T23:18:03.355Z,4.61
2022-12-01T23:20:33.555Z,4.66
2022-12-01T23:23:06.767Z,4.57
2022-12-01T23:25:37.349Z,4.50
2022-12-01T23:28:07.498Z,4.67
2022-12-01T23:30:35.263Z,4.70
2022-12-01T23:33:21.311Z,4.71
2022-12-01T23:36:00.143Z,4.58
2022-12-01T23:38:36.236Z,4.25
2022-12-01T23:41:06.523Z,4.23
2022-12-01T23:43:37.519Z,4.17
2022-12-01T23:46:17.753Z,4.08
2022-12-01T23:48:59.042Z,4.05
2022-12-01T23:51:30.073Z,3.99
2022-12-01T23:56:39.065Z,4.33
2022-12-01T23:59:14.334Z,4.12
